Time;durP1;ratioP1;P1;durP2;ratioP2;P2;SDS_P1;SDS_P2;PMS_P1;PMS_P2;Temp;Humidity;BMP_temperature;BMP_pressure;BME280_temperature;BME280_humidity;BME280_pressure;Samples;Min_cycle;Max_cycle;Signal;HPM_P1;HPM_P2
2021/12/04 00:01:59;;;;;;;2.27;1.00;;;;;;;11.42;99.33;99340.22;5075567;28;20499;-68
2021/12/04 00:04:37;;;;;;;3.03;1.10;;;;;;;11.50;99.70;99339.28;5075585;28;20411;-68
2021/12/04 00:07:06;;;;;;;2.33;1.00;;;;;;;11.48;100.00;99327.00;5075664;28;20048;-69
2021/12/04 00:09:34;;;;;;;2.88;1.20;;;;;;;11.58;99.29;99319.00;5075289;28;20037;-69
2021/12/04 00:12:03;;;;;;;5.90;2.50;;;;;;;11.45;99.98;99308.41;5074114;28;20622;-67
2021/12/04 00:14:32;;;;;;;4.90;1.88;;;;;;;11.50;100.00;99297.13;5076071;28;20053;-68
2021/12/04 00:16:59;;;;;;;1.73;0.90;;;;;;;11.53;99.91;99294.47;5075103;28;20052;-67
2021/12/04 00:19:28;;;;;;;2.63;0.80;;;;;;;11.63;99.98;99296.69;5075149;28;20052;-69
2021/12/04 00:21:55;;;;;;;2.30;0.75;;;;;;;11.52;100.00;99290.09;5075670;28;20063;-69
2021/12/04 00:24:24;;;;;;;1.90;0.98;;;;;;;11.49;100.00;99290.00;5075426;28;20067;-68
2021/12/04 00:26:53;;;;;;;4.20;1.45;;;;;;;11.78;99.96;99292.38;5075024;28;20048;-68
2021/12/04 00:29:22;;;;;;;1.77;0.95;;;;;;;11.73;99.18;99287.13;5061423;28;20044;-69
2021/12/04 00:31:54;;;;;;;2.20;0.90;;;;;;;11.77;99.67;99282.50;5078254;28;20048;-69
2021/12/04 00:34:23;;;;;;;2.72;0.82;;;;;;;11.64;100.00;99278.19;5080033;28;20053;-69
2021/12/04 00:37:08;;;;;;;1.63;0.60;;;;;;;11.79;99.49;99274.66;5079213;28;20087;-69
2021/12/04 00:50:39;;;;;;;2.55;1.00;;;;;;;11.93;98.48;99261.22;5099221;28;20040;-65
2021/12/04 00:53:07;;;;;;;1.70;0.50;;;;;;;11.83;99.12;99270.03;5099358;28;20040;-68
2021/12/04 00:55:34;;;;;;;0.95;0.40;;;;;;;11.93;98.70;99266.72;5097841;28;20052;-68
2021/12/04 00:58:02;;;;;;;0.68;0.40;;;;;;;11.97;98.52;99262.91;5076160;28;20194;-68
2021/12/04 01:00:29;;;;;;;1.63;0.60;;;;;;;12.12;97.79;99262.06;5057595;28;20500;-67
2021/12/04 01:02:56;;;;;;;1.55;0.40;;;;;;;12.08;97.68;99260.41;5058997;28;20503;-69
2021/12/04 01:05:24;;;;;;;1.58;0.50;;;;;;;12.08;97.57;99265.94;5057447;28;20468;-68
2021/12/04 01:07:51;;;;;;;1.00;0.40;;;;;;;12.15;97.66;99264.13;5058608;28;20072;-68
2021/12/04 01:10:19;;;;;;;0.50;0.32;;;;;;;12.14;97.76;99268.03;5058589;28;20511;-68
2021/12/04 01:12:49;;;;;;;4.32;0.52;;;;;;;12.27;97.16;99272.28;5058159;28;20049;-69
2021/12/04 01:15:16;;;;;;;2.55;0.40;;;;;;;12.16;97.29;99270.44;5041103;28;20061;-69
2021/12/04 01:17:44;;;;;;;2.35;0.70;;;;;;;12.09;98.74;99268.31;5058523;28;20075;-70
2021/12/04 01:20:11;;;;;;;1.85;0.47;;;;;;;12.31;98.07;99267.66;5058145;28;20045;-68
2021/12/04 01:22:39;;;;;;;1.23;0.30;;;;;;;12.27;97.69;99274.25;5040623;28;20586;-70
2021/12/04 01:25:07;;;;;;;1.75;0.45;;;;;;;12.13;99.01;99273.94;5058497;28;20049;-69
2021/12/04 01:27:37;;;;;;;1.10;0.47;;;;;;;12.08;100.00;99269.47;5058082;28;20044;-69
2021/12/04 01:30:06;;;;;;;0.45;0.38;;;;;;;11.87;100.00;99257.13;5056648;28;20057;-68
2021/12/04 01:32:33;;;;;;;1.83;0.50;;;;;;;11.86;100.00;99281.16;5058396;28;20060;-71
2021/12/04 01:35:01;;;;;;;1.90;0.65;;;;;;;11.98;100.00;99270.03;5058164;28;20053;-68
2021/12/04 01:37:28;;;;;;;2.10;0.30;;;;;;;11.93;100.00;99273.06;5058156;28;20738;-69
2021/12/04 01:39:55;;;;;;;1.23;0.40;;;;;;;11.92;100.00;99265.94;5082480;28;20044;-69
2021/12/04 01:42:23;;;;;;;1.25;0.40;;;;;;;12.00;100.00;99269.66;5098045;28;20055;-68
2021/12/04 01:44:50;;;;;;;1.77;0.40;;;;;;;11.90;100.00;99276.53;5098208;28;20483;-68
2021/12/04 01:47:20;;;;;;;2.13;0.50;;;;;;;12.03;100.00;99277.25;5096900;28;20063;-68
2021/12/04 01:49:49;;;;;;;1.45;0.47;;;;;;;12.08;100.00;99265.94;5097755;28;20060;-68
2021/12/04 01:52:20;;;;;;;1.50;0.40;;;;;;;12.25;100.00;99279.34;5096920;28;20047;-68
2021/12/04 01:54:50;;;;;;;2.10;0.50;;;;;;;11.99;100.00;99270.84;5096724;28;20063;-69
2021/12/04 01:57:20;;;;;;;1.23;0.50;;;;;;;12.01;100.00;99279.56;5096551;28;20048;-70
2021/12/04 01:59:48;;;;;;;1.63;0.50;;;;;;;11.99;100.00;99282.69;5097912;28;20080;-68
2021/12/04 02:02:16;;;;;;;0.80;0.40;;;;;;;11.95;100.00;99276.25;5097716;28;20040;-68
2021/12/04 02:04:44;;;;;;;2.40;0.52;;;;;;;12.26;100.00;99280.94;5097729;28;20059;-68
2021/12/04 02:07:12;;;;;;;3.78;0.55;;;;;;;12.14;100.00;99275.50;5097751;28;20055;-68
2021/12/04 02:09:39;;;;;;;1.95;0.30;;;;;;;12.09;100.00;99271.09;5097629;28;20495;-69
2021/12/04 02:12:08;;;;;;;0.90;0.45;;;;;;;12.20;100.00;99283.16;5097414;28;20531;-68
2021/12/04 02:14:39;;;;;;;2.33;0.40;;;;;;;12.17;100.00;99283.88;5097500;28;20055;-68
2021/12/04 02:17:07;;;;;;;1.15;0.30;;;;;;;12.24;99.81;99284.06;5097265;28;20051;-69
2021/12/04 02:19:35;;;;;;;0.50;0.20;;;;;;;12.16;100.00;99276.78;5097426;28;20055;-69
2021/12/04 02:22:02;;;;;;;1.83;0.40;;;;;;;12.24;99.59;99283.25;5097486;28;20040;-69
2021/12/04 02:24:29;;;;;;;0.98;0.20;;;;;;;12.26;99.58;99283.69;5097549;28;20538;-69
2021/12/04 02:26:57;;;;;;;0.20;0.20;;;;;;;12.24;99.16;99286.81;5096011;28;20059;-70
2021/12/04 02:29:24;;;;;;;1.55;0.30;;;;;;;12.19;99.13;99287.09;5097242;28;20040;-69
2021/12/04 02:31:55;;;;;;;1.08;0.20;;;;;;;12.25;98.84;99287.63;5097113;28;20051;-69
2021/12/04 02:34:28;;;;;;;1.10;0.20;;;;;;;12.44;97.44;99291.25;5095987;28;20051;-69
2021/12/04 02:36:57;;;;;;;1.23;0.40;;;;;;;12.39;97.04;99290.72;5097386;28;20051;-69
2021/12/04 02:39:30;;;;;;;1.17;0.28;;;;;;;12.35;97.39;99293.38;5087801;28;20138;-68
2021/12/04 02:41:58;;;;;;;0.98;0.20;;;;;;;12.37;97.61;99298.53;5076980;28;20044;-68
2021/12/04 02:44:38;;;;;;;0.57;0.30;;;;;;;12.36;97.10;99291.44;5076806;28;20048;-69
2021/12/04 02:47:06;;;;;;;1.15;0.20;;;;;;;12.35;97.20;99289.81;5076529;28;20045;-68
2021/12/04 02:49:34;;;;;;;1.52;0.43;;;;;;;12.38;97.05;99295.41;5076411;28;20174;-68
2021/12/04 02:52:05;;;;;;;1.40;0.43;;;;;;;12.45;96.72;99297.53;5076093;28;20048;-68
2021/12/04 02:54:34;;;;;;;2.85;0.30;;;;;;;12.44;96.48;99304.22;5075384;28;20549;-69
2021/12/04 02:57:03;;;;;;;5.35;0.68;;;;;;;12.46;96.16;99307.44;5076367;28;20052;-69
2021/12/04 02:59:32;;;;;;;3.60;0.65;;;;;;;12.44;96.26;99304.22;5067831;28;20052;-69
2021/12/04 03:02:00;;;;;;;3.72;0.50;;;;;;;12.40;96.35;99300.59;5056201;28;20041;-68
2021/12/04 03:04:28;;;;;;;3.45;0.50;;;;;;;12.37;96.57;99304.06;5055202;28;20049;-68
2021/12/04 03:06:55;;;;;;;2.25;0.60;;;;;;;12.36;96.76;99308.78;5056219;28;20045;-70
2021/12/04 03:09:22;;;;;;;1.50;0.50;;;;;;;12.37;97.13;99310.41;5055776;28;20500;-68
2021/12/04 03:11:50;;;;;;;4.03;0.68;;;;;;;12.41;96.66;99316.00;5056107;28;20527;-69
2021/12/04 03:14:19;;;;;;;2.10;0.40;;;;;;;12.48;96.80;99308.66;5055499;28;20057;-69
2021/12/04 03:16:46;;;;;;;3.47;0.40;;;;;;;12.30;98.96;99303.91;5054208;28;20057;-68
2021/12/04 03:19:16;;;;;;;3.08;0.55;;;;;;;12.21;99.47;99298.56;5055970;28;20053;-70
2021/12/04 03:21:44;;;;;;;;;;;;;;;12.16;100.00;99300.81;5056527;28;20476;-69
2021/12/04 03:24:13;;;;;;;3.47;0.60;;;;;;;12.17;100.00;99297.69;5056043;28;19921;-69
2021/12/04 03:26:41;;;;;;;3.13;0.50;;;;;;;12.23;100.00;99303.72;5055642;28;20543;-69
2021/12/04 03:29:15;;;;;;;4.40;0.93;;;;;;;12.17;100.00;99294.91;5054545;28;20053;-69
2021/12/04 03:40:06;;;;;;;5.18;1.00;;;;;;;12.25;98.72;99284.84;5077160;28;20051;-68
2021/12/04 03:42:35;;;;;;;3.95;0.50;;;;;;;12.26;97.36;99281.72;5095734;28;20048;-69
2021/12/04 03:45:06;;;;;;;5.53;0.90;;;;;;;12.24;96.47;99289.56;5095773;28;20145;-69
2021/12/04 03:47:34;;;;;;;2.75;0.50;;;;;;;12.24;96.07;99286.00;5094029;28;20047;-69
2021/12/04 03:50:01;;;;;;;3.55;0.63;;;;;;;12.24;95.34;99277.72;5095778;28;20048;-68
2021/12/04 03:52:28;;;;;;;2.28;0.60;;;;;;;12.31;94.63;99277.88;5094510;28;20048;-68
2021/12/04 03:54:55;;;;;;;5.07;0.73;;;;;;;12.42;93.88;99287.22;5095604;28;20052;-68
2021/12/04 03:57:22;;;;;;;4.60;0.50;;;;;;;12.54;93.44;99281.56;5095552;28;20055;-69
2021/12/04 03:59:50;;;;;;;5.38;0.82;;;;;;;12.56;93.26;99276.50;5095458;28;20052;-68
2021/12/04 04:02:17;;;;;;;3.17;0.60;;;;;;;12.60;92.72;99285.66;5093586;28;20542;-70
2021/12/04 04:04:45;;;;;;;6.03;0.60;;;;;;;12.57;92.74;99282.81;5095800;28;20040;-68
2021/12/04 04:07:12;;;;;;;2.85;0.50;;;;;;;12.59;92.68;99286.81;5094197;28;20510;-68
2021/12/04 04:09:39;;;;;;;2.05;0.30;;;;;;;12.49;93.41;99279.09;5094312;28;20056;-68
2021/12/04 04:12:07;;;;;;;2.75;0.50;;;;;;;12.88;92.29;99279.94;5094007;28;20070;-69
2021/12/04 04:14:34;;;;;;;2.92;0.55;;;;;;;12.97;91.00;99284.06;5093391;28;20047;-69
2021/12/04 04:17:04;;;;;;;2.88;0.60;;;;;;;12.73;92.53;99289.06;5093927;28;20052;-69
2021/12/04 04:19:31;;;;;;;4.55;0.70;;;;;;;12.64;92.93;99282.97;5095399;28;20055;-68
2021/12/04 04:21:58;;;;;;;5.10;0.70;;;;;;;12.57;93.68;99278.06;5060351;28;20055;-68
2021/12/04 04:24:28;;;;;;;2.42;0.40;;;;;;;12.42;94.65;99265.94;5095528;28;20052;-68
2021/12/04 04:26:56;;;;;;;5.55;0.63;;;;;;;12.31;95.63;99278.69;5095208;28;20048;-68
2021/12/04 04:29:24;;;;;;;4.05;0.60;;;;;;;12.35;95.77;99274.06;5095379;28;20483;-67
2021/12/04 04:31:54;;;;;;;2.53;0.40;;;;;;;12.33;95.79;99276.38;5077860;28;20044;-68
2021/12/04 04:34:26;;;;;;;5.18;0.52;;;;;;;12.56;94.64;99278.44;5093899;28;20511;-67
2021/12/04 04:59:18;;;;;;;2.30;0.40;;;;;;;12.26;93.22;99265.16;5073120;28;20538;-64
2021/12/04 05:12:49;;;;;;;3.50;0.47;;;;;;;12.31;91.97;99255.78;5074454;28;20051;-64
2021/12/04 05:15:45;;;;;;;3.25;0.50;;;;;;;12.23;92.12;99260.38;5077659;28;20083;-64
2021/12/04 05:20:48;;;;;;;1.90;0.40;;;;;;;12.23;91.29;99262.31;5078009;28;20056;-63
2021/12/04 05:23:16;;;;;;;1.02;0.30;;;;;;;12.18;91.67;99254.31;5077203;28;20036;-65
2021/12/04 05:25:43;;;;;;;2.17;0.47;;;;;;;12.22;91.99;99263.50;5078034;28;20519;-65
2021/12/04 05:28:10;;;;;;;3.65;0.55;;;;;;;12.37;91.34;99260.69;5078044;28;20526;-65
2021/12/04 05:30:38;;;;;;;1.92;0.40;;;;;;;12.24;91.63;99255.63;5077667;28;20067;-65
2021/12/04 05:33:05;;;;;;;1.55;0.45;;;;;;;12.56;90.62;99256.34;5076208;28;20064;-66
2021/12/04 05:35:33;;;;;;;1.85;0.30;;;;;;;12.52;90.17;99255.50;5078622;28;20053;-65
2021/12/04 05:38:00;;;;;;;1.65;0.40;;;;;;;12.69;89.59;99255.06;5078149;28;20072;-65
2021/12/04 05:40:28;;;;;;;1.23;0.30;;;;;;;12.70;89.31;99254.69;5095067;28;20059;-67
2021/12/04 05:43:03;;;;;;;2.75;0.47;;;;;;;13.40;86.29;99249.78;5097960;28;20052;-65
2021/12/04 05:45:33;;;;;;;4.97;0.40;;;;;;;12.78;87.78;99258.41;5097029;28;20052;-65
2021/12/04 05:53:22;;;;;;;3.97;0.50;;;;;;;12.81;88.88;99265.97;5097932;28;20048;-65
2021/12/04 05:55:58;;;;;;;2.58;0.60;;;;;;;13.06;88.37;99264.53;5097894;28;20052;-64
2021/12/04 05:58:31;;;;;;;2.25;0.40;;;;;;;13.26;86.08;99260.59;5098027;28;20060;-65
2021/12/04 06:01:01;;;;;;;3.35;0.65;;;;;;;13.03;86.50;99260.53;5096552;28;20059;-64
2021/12/04 06:03:29;;;;;;;2.25;0.45;;;;;;;13.16;86.81;99261.19;5097728;28;20044;-64
2021/12/04 06:05:57;;;;;;;1.83;0.52;;;;;;;12.86;87.28;99258.19;5097932;28;20059;-63
2021/12/04 06:08:25;;;;;;;3.13;0.55;;;;;;;12.88;88.03;99260.59;5097980;28;20055;-64
2021/12/04 06:10:53;;;;;;;1.48;0.50;;;;;;;12.54;88.23;99265.00;5097529;28;20067;-65
2021/12/04 06:13:20;;;;;;;2.05;0.50;;;;;;;12.51;89.23;99254.69;5096500;28;20048;-66
2021/12/04 06:15:48;;;;;;;1.83;0.50;;;;;;;12.42;90.07;99263.19;5097582;28;20715;-65
2021/12/04 06:18:16;;;;;;;1.88;0.43;;;;;;;12.39;90.23;99252.88;5096361;28;20056;-65
2021/12/04 06:23:30;;;;;;;3.47;0.73;;;;;;;12.58;89.61;99243.78;5097286;28;20051;-65
2021/12/04 06:25:57;;;;;;;4.65;0.70;;;;;;;13.22;87.05;99245.88;5097214;28;20065;-64
2021/12/04 06:28:24;;;;;;;1.83;0.40;;;;;;;12.83;87.04;99245.09;5097249;28;20052;-66
2021/12/04 06:30:54;;;;;;;2.20;0.60;;;;;;;12.94;87.55;99239.78;5097051;28;20517;-65
2021/12/04 06:33:26;;;;;;;2.78;0.70;;;;;;;12.96;87.41;99231.94;5097341;28;20399;-65
2021/12/04 06:35:53;;;;;;;5.00;0.70;;;;;;;12.84;87.19;99232.09;5097711;28;20106;-64
2021/12/04 06:38:21;;;;;;;3.15;0.57;;;;;;;13.17;87.00;99233.19;5095810;28;20048;-64
2021/12/04 06:40:49;;;;;;;2.88;0.85;;;;;;;13.10;86.58;99226.69;5095418;28;20082;-64
2021/12/04 06:43:17;;;;;;;3.28;0.60;;;;;;;12.90;87.15;99234.19;5097066;28;20047;-64
2021/12/04 06:45:50;;;;;;;2.42;0.80;;;;;;;12.79;88.10;99238.72;5088588;28;20055;-65
2021/12/04 06:48:19;;;;;;;5.18;0.90;;;;;;;13.49;86.64;99225.47;5055464;28;20049;-65
2021/12/04 06:50:50;;;;;;;2.27;0.67;;;;;;;13.04;86.93;99226.19;5056750;28;20057;-64
2021/12/04 06:55:48;;;;;;;3.35;0.90;;;;;;;12.80;89.77;99229.25;5056407;28;20053;-65
2021/12/04 06:58:16;;;;;;;2.60;0.82;;;;;;;12.54;91.88;99220.81;5057046;28;20045;-65
2021/12/04 07:00:44;;;;;;;1.33;0.70;;;;;;;12.58;92.85;99218.13;5055598;28;20053;-64
2021/12/04 07:03:16;;;;;;;1.77;0.50;;;;;;;12.59;92.95;99225.25;5055441;28;20152;-65
2021/12/04 07:05:44;;;;;;;2.75;0.82;;;;;;;13.03;92.17;99215.50;5071221;28;20518;-65
2021/12/04 07:08:12;;;;;;;2.30;0.60;;;;;;;12.60;92.89;99224.91;5055784;28;20059;-66
2021/12/04 07:10:39;;;;;;;2.88;0.93;;;;;;;12.53;93.93;99221.97;5056258;28;20041;-69
2021/12/04 07:13:07;;;;;;;1.70;0.73;;;;;;;12.45;95.02;99212.75;5056424;28;20572;-69
2021/12/04 07:15:35;;;;;;;2.92;0.60;;;;;;;12.47;95.52;99209.59;5056031;28;20060;-68
2021/12/04 07:18:03;;;;;;;4.28;0.77;;;;;;;12.19;97.68;99209.00;5056432;28;20067;-68
2021/12/04 07:20:31;;;;;;;1.98;0.70;;;;;;;12.24;98.18;99211.47;5038803;28;20056;-68
2021/12/04 07:22:59;;;;;;;4.75;0.88;;;;;;;12.16;98.75;99210.53;5054630;28;20053;-69
2021/12/04 07:25:27;;;;;;;3.85;0.80;;;;;;;12.13;99.94;99204.94;5055061;28;20124;-70
2021/12/04 07:27:55;;;;;;;4.25;1.20;;;;;;;12.11;100.00;99213.56;5056730;28;20060;-70
2021/12/04 07:30:24;;;;;;;4.70;1.10;;;;;;;12.31;100.00;99208.84;5056006;28;20675;-72
2021/12/04 07:32:51;;;;;;;2.45;1.00;;;;;;;12.46;99.23;99213.53;5056182;28;20064;-68
2021/12/04 07:35:19;;;;;;;2.13;1.05;;;;;;;12.32;99.66;99207.72;5054963;28;20057;-69
2021/12/04 07:37:46;;;;;;;1.80;0.93;;;;;;;12.32;100.00;99204.94;5056406;28;20389;-69
2021/12/04 07:40:19;;;;;;;2.92;1.20;;;;;;;12.30;100.00;99205.31;5084572;28;20079;-67
2021/12/04 07:42:47;;;;;;;1.90;1.00;;;;;;;12.27;100.00;99206.03;5074293;28;20508;-69
2021/12/04 07:45:15;;;;;;;4.38;1.55;;;;;;;12.13;100.00;99208.47;5076018;28;20052;-68
2021/12/04 07:47:42;;;;;;;2.05;0.85;;;;;;;12.21;100.00;99203.91;5068812;28;20049;-68
2021/12/04 07:50:09;;;;;;;3.10;0.85;;;;;;;12.17;100.00;99206.59;5056517;28;20053;-70
2021/12/04 07:52:38;;;;;;;2.58;0.60;;;;;;;12.36;98.45;99208.59;5056122;28;20132;-70
2021/12/04 07:55:07;;;;;;;0.88;0.50;;;;;;;12.33;98.22;99209.31;5056221;28;20044;-68
2021/12/04 07:57:35;;;;;;;2.80;0.50;;;;;;;12.35;97.21;99213.31;5056790;28;20052;-69
2021/12/04 08:00:06;;;;;;;0.95;0.47;;;;;;;12.21;97.39;99212.19;5056405;28;20124;-69
2021/12/04 08:02:33;;;;;;;1.60;0.60;;;;;;;12.27;97.04;99216.28;5055120;28;20053;-69
2021/12/04 08:05:01;;;;;;;1.00;0.47;;;;;;;12.25;97.08;99215.84;5055443;28;20567;-68
2021/12/04 08:07:28;;;;;;;1.40;0.45;;;;;;;12.23;95.41;99221.72;5055528;28;20049;-68
2021/12/04 08:09:55;;;;;;;0.73;0.47;;;;;;;12.21;94.80;99223.22;5054162;28;20045;-69
2021/12/04 08:12:22;;;;;;;0.30;0.20;;;;;;;12.28;93.68;99226.16;5055104;28;20056;-69
2021/12/04 08:14:51;;;;;;;2.63;0.50;;;;;;;12.16;93.11;99227.09;5055104;28;20048;-70
2021/12/04 08:17:19;;;;;;;0.88;0.40;;;;;;;12.18;92.45;99233.06;5055388;28;20052;-70
2021/12/04 08:19:46;;;;;;;1.63;0.38;;;;;;;12.19;92.83;99234.63;5053784;28;20056;-69
2021/12/04 08:22:13;;;;;;;2.45;0.40;;;;;;;12.18;93.29;99235.00;5053673;28;20053;-69
2021/12/04 08:24:42;;;;;;;0.30;0.30;;;;;;;12.04;95.04;99241.00;5054992;28;20056;-70
2021/12/04 08:27:10;;;;;;;1.70;0.30;;;;;;;11.96;96.78;99257.75;5056057;28;20049;-70
2021/12/04 08:29:37;;;;;;;1.52;0.50;;;;;;;12.00;96.98;99256.66;5055016;28;20187;-68
2021/12/04 08:32:05;;;;;;;3.85;0.50;;;;;;;11.89;96.35;99268.63;5054110;28;20053;-68
2021/12/04 08:34:32;;;;;;;3.45;0.45;;;;;;;11.93;95.34;99264.78;5053388;28;20052;-68
2021/12/04 08:37:00;;;;;;;0.93;0.32;;;;;;;11.87;93.72;99266.19;5055103;28;20508;-69
2021/12/04 08:39:27;;;;;;;0.63;0.20;;;;;;;11.92;93.55;99267.91;5070673;28;20050;-69
2021/12/04 08:41:54;;;;;;;1.40;0.40;;;;;;;11.86;92.71;99280.34;5067193;28;20404;-67
2021/12/04 08:44:22;;;;;;;1.27;0.50;;;;;;;11.81;92.79;99275.91;5055040;28;20048;-68
2021/12/04 08:46:49;;;;;;;2.10;0.50;;;;;;;11.81;91.64;99273.16;5063438;28;20060;-69
2021/12/04 08:49:17;;;;;;;0.75;0.40;;;;;;;11.78;90.32;99265.59;5076789;28;20044;-67
2021/12/04 08:51:44;;;;;;;2.10;0.52;;;;;;;11.94;89.41;99273.88;5068672;28;20044;-66
2021/12/04 08:54:13;;;;;;;2.25;0.60;;;;;;;11.66;89.98;99286.94;5070064;28;20045;-66
2021/12/04 08:56:40;;;;;;;3.17;0.50;;;;;;;11.62;91.07;99292.34;5058635;28;20053;-66
2021/12/04 08:59:08;;;;;;;4.28;0.40;;;;;;;11.49;90.59;99301.81;5073980;28;20404;-65
2021/12/04 09:01:38;;;;;;;2.42;0.50;;;;;;;11.52;91.68;99314.13;5077454;28;20048;-66
2021/12/04 09:04:28;;;;;;;4.18;0.90;;;;;;;11.28;90.75;99320.53;5078623;28;20053;-67
2021/12/04 09:06:58;;;;;;;2.10;0.95;;;;;;;11.26;90.60;99326.41;5067868;28;20047;-68
2021/12/04 09:09:28;;;;;;;2.47;0.63;;;;;;;11.19;88.23;99322.69;5072114;28;20385;-68
2021/12/04 09:12:15;;;;;;;4.20;0.60;;;;;;;11.34;86.79;99339.25;5076252;28;20052;-67
2021/12/04 09:14:44;;;;;;;3.47;0.60;;;;;;;11.32;85.40;99330.53;5076247;28;20052;-68
2021/12/04 09:17:14;;;;;;;5.03;1.08;;;;;;;11.24;85.16;99344.47;5057251;28;20148;-68
2021/12/04 09:19:41;;;;;;;6.45;0.65;;;;;;;11.14;83.84;99340.25;5058479;28;20056;-68
2021/12/04 09:22:15;;;;;;;4.93;1.35;;;;;;;11.26;83.87;99344.94;5061923;28;20416;-69
2021/12/04 09:25:00;;;;;;;;;;;;;;;11.11;83.23;99351.97;5071006;28;20093;-66
2021/12/04 09:30:37;;;;;;;5.15;1.00;;;;;;;12.27;88.55;99335.00;5077992;28;20064;-68
2021/12/04 10:14:09;;;;;;;7.05;1.25;;;;;;;11.02;76.40;99425.72;5072941;28;20049;-70
2021/12/04 10:20:05;;;;;;;6.45;1.13;;;;;;;10.93;76.85;99454.56;5086902;28;20053;-65
2021/12/04 10:22:46;;;;;;;7.47;0.90;;;;;;;10.55;76.76;99432.09;5077040;28;20051;-67
2021/12/04 10:33:40;;;;;;;4.18;0.75;;;;;;;10.71;75.63;99449.50;5065929;28;20052;-68
2021/12/04 10:36:08;;;;;;;4.75;0.90;;;;;;;10.52;75.97;99444.56;5059906;28;20583;-68
2021/12/04 10:38:43;;;;;;;7.00;1.73;;;;;;;10.62;75.84;99446.06;5068349;28;20045;-66
2021/12/04 10:41:12;;;;;;;4.85;1.10;;;;;;;10.82;74.73;99447.91;5081360;28;20048;-67
2021/12/04 10:43:40;;;;;;;5.57;1.02;;;;;;;10.65;73.99;99456.41;5076015;28;20385;-67
2021/12/04 10:46:21;;;;;;;5.97;0.93;;;;;;;10.46;76.48;99451.44;5058561;28;20555;-66
2021/12/04 10:48:58;;;;;;;8.88;0.90;;;;;;;10.44;76.86;99450.19;5059775;28;20045;-66
2021/12/04 10:51:31;;;;;;;4.50;0.70;;;;;;;10.32;76.93;99458.44;5065555;28;20416;-66
2021/12/04 10:54:13;;;;;;;5.63;1.08;;;;;;;10.47;78.28;99444.81;5085430;28;20150;-67
2021/12/04 10:59:40;;;;;;;6.40;1.27;;;;;;;10.22;79.56;99454.16;5074965;28;20049;-65
2021/12/04 11:02:24;;;;;;;4.80;1.20;;;;;;;10.56;79.68;99463.97;5065782;28;20053;-67
2021/12/04 11:04:53;;;;;;;8.52;1.33;;;;;;;10.58;80.77;99459.72;5078142;28;20040;-66
2021/12/04 11:19:23;;;;;;;8.25;1.77;;;;;;;10.17;86.24;99477.22;5055667;28;20450;-67
2021/12/04 11:43:04;;;;;;;4.22;1.45;;;;;;;8.97;89.41;99531.56;5054029;28;20064;-65
2021/12/04 11:46:41;;;;;;;4.20;1.20;;;;;;;9.09;88.67;99518.72;5055309;28;20044;-66
2021/12/04 11:48:37;;;;;;;5.55;1.40;;;;;;;9.05;89.61;99526.00;5068966;28;20056;-67
2021/12/04 11:51:11;;;;;;;6.50;1.65;;;;;;;9.45;90.06;99526.38;5074147;28;20392;-67
2021/12/04 11:53:39;;;;;;;6.70;1.95;;;;;;;9.73;85.88;99526.63;5086274;28;20051;-68
2021/12/04 11:56:13;;;;;;;9.30;1.65;;;;;;;9.52;84.83;99545.09;5065825;28;20040;-66
2021/12/04 11:58:43;;;;;;;8.25;1.75;;;;;;;9.35;85.64;99542.47;5073371;28;20051;-66
2021/12/04 12:01:21;;;;;;;9.40;1.90;;;;;;;9.29;86.02;99555.63;5072901;28;20059;-67
2021/12/04 12:03:54;;;;;;;9.57;3.00;;;;;;;9.39;85.50;99554.41;5054197;28;20052;-66
2021/12/04 12:06:44;;;;;;;8.85;2.33;;;;;;;9.29;82.53;99543.81;5070220;28;20048;-66
2021/12/04 12:09:18;;;;;;;13.30;2.53;;;;;;;9.57;81.75;99551.19;5056040;28;20064;-67
2021/12/04 12:11:53;;;;;;;12.18;2.50;;;;;;;9.62;80.32;99558.44;5053711;28;20052;-67
2021/12/04 12:14:44;;;;;;;15.52;2.53;;;;;;;9.61;78.85;99556.81;5072183;28;20051;-66
2021/12/04 12:17:11;;;;;;;9.98;2.50;;;;;;;9.43;80.34;99566.34;5056013;28;20056;-67
2021/12/04 12:19:47;;;;;;;11.50;2.80;;;;;;;9.59;79.06;99583.88;5055813;28;20051;-67
2021/12/04 12:22:45;;;;;;;15.07;2.65;;;;;;;9.42;78.30;99571.03;5054966;28;20037;-66
2021/12/04 12:25:23;;;;;;;15.80;2.20;;;;;;;9.57;75.71;99589.66;5061599;28;20041;-66
2021/12/04 12:36:13;;;;;;;18.65;2.58;;;;;;;9.35;77.29;99616.66;5028946;28;20056;-66
2021/12/04 12:39:13;;;;;;;11.38;3.08;;;;;;;9.59;75.96;99614.88;5064859;28;20052;-65
2021/12/04 12:41:48;;;;;;;17.48;3.47;;;;;;;9.68;73.77;99634.88;5074911;28;20061;-66
2021/12/04 12:44:19;;;;;;;12.60;2.67;;;;;;;9.65;74.24;99641.06;5062410;28;20057;-65
2021/12/04 12:46:51;;;;;;;11.60;2.15;;;;;;;9.77;73.29;99643.88;5072714;28;20051;-67
2021/12/04 12:49:22;;;;;;;17.60;3.25;;;;;;;9.75;73.74;99639.84;5060286;28;20067;-66
2021/12/04 12:52:12;;;;;;;14.18;3.30;;;;;;;9.57;71.81;99646.63;5064578;28;20052;-67
2021/12/04 12:54:56;;;;;;;17.17;2.40;;;;;;;9.48;72.13;99654.09;5061203;28;20061;-66
2021/12/04 12:57:27;;;;;;;18.67;2.17;;;;;;;9.53;70.28;99635.47;5064415;28;20056;-67
2021/12/04 13:14:13;;;;;;;15.73;2.78;;;;;;;9.60;68.80;99659.69;5062353;28;20053;-66
2021/12/04 13:16:47;;;;;;;11.95;2.50;;;;;;;9.43;69.53;99657.81;5058252;28;20061;-66
2021/12/04 13:19:16;;;;;;;15.13;2.80;;;;;;;9.43;69.11;99657.03;5057259;28;20491;-65
2021/12/04 13:21:47;;;;;;;11.15;2.45;;;;;;;9.25;68.93;99648.06;5058714;28;20048;-70
2021/12/04 13:24:15;;;;;;;11.70;2.47;;;;;;;9.42;69.15;99669.16;5061097;28;20052;-66
2021/12/04 13:26:46;;;;;;;15.85;3.00;;;;;;;9.42;66.96;99669.16;5067178;28;20052;-65
2021/12/04 13:29:17;;;;;;;12.23;2.60;;;;;;;9.52;64.85;99675.09;5091559;28;20530;-65
2021/12/04 13:31:44;;;;;;;16.58;2.97;;;;;;;9.39;62.65;99673.38;5081276;28;20048;-65
2021/12/04 13:34:23;;;;;;;12.63;2.50;;;;;;;9.16;62.50;99654.72;5096295;28;20051;-65
2021/12/04 13:36:52;;;;;;;13.50;2.53;;;;;;;9.12;63.75;99673.81;5098379;28;20040;-65
2021/12/04 13:39:21;;;;;;;17.08;3.60;;;;;;;9.21;64.90;99671.84;5090728;28;20068;-66
2021/12/04 13:41:50;;;;;;;26.50;7.90;;;;;;;9.56;65.26;99670.53;5062817;28;20040;-64
2021/12/04 13:44:19;;;;;;;18.10;3.22;;;;;;;9.48;64.62;99665.09;5056081;28;20651;-65
2021/12/04 13:46:54;;;;;;;14.83;2.63;;;;;;;9.17;63.18;99656.38;5060492;28;20040;-65
2021/12/04 13:49:31;;;;;;;14.13;2.30;;;;;;;9.46;64.78;99651.69;5061363;28;20542;-65
2021/12/04 13:52:04;;;;;;;12.32;2.45;;;;;;;9.37;62.38;99648.19;5065728;28;20052;-64
2021/12/04 13:54:35;;;;;;;20.70;3.47;;;;;;;9.53;63.50;99657.47;5070732;28;20044;-65
2021/12/04 13:57:08;;;;;;;14.48;2.47;;;;;;;9.61;62.52;99658.53;5075711;28;20052;-65
2021/12/04 13:59:36;;;;;;;16.48;3.38;;;;;;;9.43;62.64;99651.53;5069884;28;20048;-66
2021/12/04 14:02:04;;;;;;;16.48;2.80;;;;;;;9.48;62.21;99648.59;5056413;28;20515;-66
2021/12/04 14:04:36;;;;;;;18.52;2.83;;;;;;;9.09;62.96;99649.75;5056119;28;20503;-66
2021/12/04 14:07:05;;;;;;;16.85;2.97;;;;;;;9.36;62.38;99662.25;5057043;28;20555;-66
2021/12/04 14:09:37;;;;;;;13.43;2.42;;;;;;;8.97;61.37;99664.19;5066969;28;20079;-64
2021/12/04 14:12:06;;;;;;;14.35;2.67;;;;;;;9.24;61.62;99659.41;5080551;28;20048;-67
2021/12/04 14:14:35;;;;;;;16.33;2.90;;;;;;;9.35;60.72;99664.19;5077739;28;20051;-66
2021/12/04 14:17:12;;;;;;;22.77;3.08;;;;;;;9.23;61.36;99682.50;5070460;28;20057;-65
2021/12/04 14:19:43;;;;;;;17.15;2.50;;;;;;;9.27;60.87;99669.72;5057588;28;20053;-65
2021/12/04 14:22:14;;;;;;;14.57;2.53;;;;;;;9.48;59.82;99678.84;5064086;28;20051;-67
2021/12/04 14:24:46;;;;;;;18.55;2.72;;;;;;;9.26;60.62;99688.13;5088121;28;20052;-64
2021/12/04 14:27:25;;;;;;;16.50;3.17;;;;;;;9.28;59.98;99690.56;5075609;28;20051;-66
2021/12/04 14:29:57;;;;;;;14.97;2.83;;;;;;;9.57;60.46;99693.34;5073029;28;20052;-63
2021/12/04 14:32:31;;;;;;;13.00;3.20;;;;;;;9.02;59.21;99707.13;5053968;28;20287;-68
2021/12/04 14:35:15;;;;;;;15.77;2.25;;;;;;;9.09;59.96;99715.69;5058442;28;20420;-64
2021/12/04 14:37:50;;;;;;;18.17;2.25;;;;;;;8.82;58.93;99710.59;5085245;28;20063;-65
2021/12/04 14:40:22;;;;;;;15.50;2.47;;;;;;;8.92;58.82;99711.06;5082150;28;20056;-68
2021/12/04 14:42:50;;;;;;;19.38;2.22;;;;;;;9.06;59.27;99730.91;5059168;28;20052;-64
2021/12/04 14:45:24;;;;;;;16.73;2.58;;;;;;;9.30;59.05;99726.75;5074546;28;20080;-64
2021/12/04 14:48:00;;;;;;;15.98;2.70;;;;;;;9.58;58.55;99731.50;5075768;28;20534;-67
2021/12/04 14:50:28;;;;;;;18.85;2.70;;;;;;;9.32;58.89;99738.22;5076552;28;20052;-65